Time;durP1;ratioP1;P1;durP2;ratioP2;P2;SDS_P1;SDS_P2;PMS_P1;PMS_P2;Temp;Humidity;BMP_temperature;BMP_pressure;BME280_temperature;BME280_humidity;BME280_pressure;Samples;Min_cycle;Max_cycle;Signal;HPM_P1;HPM_P2
2022/04/19 00:00:44;;;;;;;3.90;3.10;;;;;;;;;;4954219;29;20078;-80
2022/04/19 00:03:12;;;;;;;2.90;2.50;;;;;;;;;;4953269;29;20505;-80
2022/04/19 00:05:41;;;;;;;5.82;3.20;;;;;;;;;;4953665;29;20051;-81
2022/04/19 00:08:09;;;;;;;8.75;3.20;;;;;;;;;;4953560;29;20085;-81
2022/04/19 00:10:36;;;;;;;3.72;3.05;;;;;;;;;;4953570;29;20098;-81
2022/04/19 00:13:05;;;;;;;4.63;3.10;;;;;;;;;;4953340;29;20413;-81
2022/04/19 00:15:32;;;;;;;4.78;3.50;;;;;;;;;;4953467;29;20047;-80
2022/04/19 00:18:00;;;;;;;4.32;3.20;;;;;;;;;;4953342;29;20051;-80
2022/04/19 00:20:30;;;;;;;4.85;3.15;;;;;;;;;;4954309;28;20059;-80
2022/04/19 00:22:57;;;;;;;3.75;3.40;;;;;;;;;;4954582;28;20109;-81
2022/04/19 00:25:25;;;;;;;4.13;2.85;;;;;;;;;;4956293;29;20469;-80
2022/04/19 00:27:52;;;;;;;4.60;2.95;;;;;;;;;;4956407;29;20043;-81
2022/04/19 00:30:19;;;;;;;5.63;3.45;;;;;;;;;;4956133;29;20464;-80
2022/04/19 00:32:46;;;;;;;8.38;3.22;;;;;;;;;;4956231;29;20083;-80
2022/04/19 00:35:14;;;;;;;4.88;2.92;;;;;;;;;;4955094;29;20059;-80
2022/04/19 00:37:41;;;;;;;3.25;3.05;;;;;;;;;;4955420;29;20451;-80
2022/04/19 00:40:09;;;;;;;5.07;3.45;;;;;;;;;;4955957;29;20048;-80
2022/04/19 00:42:36;;;;;;;3.25;2.95;;;;;;;;;;4955705;29;20047;-81
2022/04/19 00:45:05;;;;;;;7.85;3.95;;;;;;;;;;4956608;29;20055;-81
2022/04/19 00:47:32;;;;;;;8.45;4.82;;;;;;;;;;4956584;29;20520;-80
2022/04/19 00:50:01;;;;;;;13.25;5.32;;;;;;;;;;4956984;29;20117;-80
2022/04/19 00:52:32;;;;;;;5.93;4.40;;;;;;;;;;4956181;29;20134;-80
2022/04/19 00:55:01;;;;;;;5.10;4.22;;;;;;;;;;4957171;28;20051;-81
2022/04/19 00:57:28;;;;;;;4.40;3.63;;;;;;;;;;4955886;29;20097;-81
2022/04/19 00:59:57;;;;;;;3.30;3.00;;;;;;;;;;4956596;29;20142;-81
2022/04/19 01:02:24;;;;;;;7.57;3.42;;;;;;;;;;4956513;29;20071;-81
2022/04/19 01:04:55;;;;;;;3.97;3.42;;;;;;;;;;4956372;29;20059;-80
2022/04/19 01:07:22;;;;;;;3.97;3.47;;;;;;;;;;4956331;29;20043;-80
2022/04/19 01:09:49;;;;;;;7.28;3.65;;;;;;;;;;4956780;29;20426;-80
2022/04/19 01:15:04;;;;;;;7.65;3.28;;;;;;;;;;4957050;28;20475;-80
2022/04/19 01:17:31;;;;;;;4.07;3.00;;;;;;;;;;4956029;29;20093;-81
2022/04/19 01:19:58;;;;;;;4.35;3.53;;;;;;;;;;4956229;29;20075;-80
2022/04/19 01:22:25;;;;;;;8.05;3.40;;;;;;;;;;4955555;29;20459;-80
2022/04/19 01:24:52;;;;;;;6.32;3.65;;;;;;;;;;4955817;29;20142;-80
2022/04/19 01:27:19;;;;;;;5.13;3.72;;;;;;;;;;4956202;29;20097;-80
2022/04/19 01:29:48;;;;;;;3.97;3.13;;;;;;;;;;4956293;29;20091;-80
2022/04/19 01:32:15;;;;;;;4.43;3.75;;;;;;;;;;4956239;29;20138;-80
2022/04/19 01:34:42;;;;;;;5.18;3.75;;;;;;;;;;4955659;28;20075;-80
2022/04/19 01:37:09;;;;;;;3.75;3.45;;;;;;;;;;4955155;29;20146;-80
2022/04/19 01:42:23;;;;;;;5.53;4.25;;;;;;;;;;4957245;28;20138;-81
2022/04/19 01:44:50;;;;;;;8.32;3.80;;;;;;;;;;4956482;29;20142;-80
2022/04/19 01:47:17;;;;;;;5.15;3.72;;;;;;;;;;4956848;29;20065;-80
2022/04/19 01:49:44;;;;;;;5.30;3.60;;;;;;;;;;4956804;29;20086;-81
2022/04/19 01:52:11;;;;;;;4.03;3.50;;;;;;;;;;4958228;28;20469;-81
2022/04/19 01:54:39;;;;;;;4.30;3.70;;;;;;;;;;4958054;28;20047;-81
2022/04/19 01:57:06;;;;;;;6.53;3.97;;;;;;;;;;4958700;28;20086;-81
2022/04/19 01:59:33;;;;;;;4.00;3.63;;;;;;;;;;4957215;29;20545;-80
2022/04/19 02:02:00;;;;;;;4.57;3.60;;;;;;;;;;4957487;29;20403;-81
2022/04/19 02:04:27;;;;;;;12.20;4.10;;;;;;;;;;4957177;29;20051;-81
2022/04/19 02:06:56;;;;;;;14.30;4.57;;;;;;;;;;4957677;29;20466;-81
2022/04/19 02:09:24;;;;;;;5.07;3.45;;;;;;;;;;4958782;28;20082;-80
2022/04/19 02:11:51;;;;;;;4.43;3.50;;;;;;;;;;4957791;29;20048;-80
2022/04/19 02:14:20;;;;;;;4.85;3.53;;;;;;;;;;4959397;28;20056;-81
2022/04/19 02:16:47;;;;;;;5.53;3.38;;;;;;;;;;4958428;29;20059;-81
2022/04/19 02:19:14;;;;;;;3.92;3.30;;;;;;;;;;4958667;29;20047;-81
2022/04/19 02:21:41;;;;;;;5.18;3.55;;;;;;;;;;4958202;29;20051;-80
2022/04/19 02:24:08;;;;;;;3.47;3.10;;;;;;;;;;4960503;29;20051;-81
2022/04/19 02:26:35;;;;;;;4.40;3.40;;;;;;;;;;4955760;29;20055;-80
2022/04/19 02:29:03;;;;;;;3.70;3.40;;;;;;;;;;4953676;29;20134;-80
2022/04/19 02:31:30;;;;;;;5.82;3.90;;;;;;;;;;4954827;28;20055;-80
2022/04/19 02:33:58;;;;;;;8.23;3.63;;;;;;;;;;4953523;29;20138;-80
2022/04/19 02:36:26;;;;;;;9.20;3.88;;;;;;;;;;4952977;29;20055;-80
2022/04/19 02:38:53;;;;;;;3.88;3.47;;;;;;;;;;4953741;29;20440;-80
2022/04/19 02:41:20;;;;;;;6.47;3.55;;;;;;;;;;4953485;29;20115;-80
2022/04/19 02:43:48;;;;;;;5.68;3.75;;;;;;;;;;4953638;29;20086;-81
2022/04/19 02:46:15;;;;;;;4.82;3.90;;;;;;;;;;4953564;28;20089;-80
2022/04/19 02:48:42;;;;;;;6.88;3.95;;;;;;;;;;4953550;29;20062;-79
2022/04/19 02:51:09;;;;;;;4.80;3.70;;;;;;;;;;4953353;29;20524;-80
2022/04/19 02:53:36;;;;;;;5.15;4.18;;;;;;;;;;4952917;29;20143;-80
2022/04/19 02:56:04;;;;;;;6.40;4.47;;;;;;;;;;4952697;29;20080;-80
2022/04/19 02:58:31;;;;;;;5.18;3.95;;;;;;;;;;4954386;28;20581;-80
2022/04/19 03:00:59;;;;;;;6.85;3.83;;;;;;;;;;4953372;29;20478;-80
2022/04/19 03:03:29;;;;;;;5.13;3.60;;;;;;;;;;4952985;29;20051;-80
2022/04/19 03:05:58;;;;;;;4.15;3.45;;;;;;;;;;4953105;29;20074;-80
2022/04/19 03:08:25;;;;;;;6.68;3.80;;;;;;;;;;4952819;29;20520;-80
2022/04/19 03:10:52;;;;;;;9.93;4.70;;;;;;;;;;4953541;29;20075;-80
2022/04/19 03:13:19;;;;;;;11.20;5.72;;;;;;;;;;4952920;29;20074;-79
2022/04/19 03:15:46;;;;;;;7.63;4.45;;;;;;;;;;4953385;29;20047;-81
2022/04/19 03:18:14;;;;;;;4.25;3.88;;;;;;;;;;4954685;29;20054;-80
2022/04/19 03:20:45;;;;;;;6.85;5.40;;;;;;;;;;4955757;28;20081;-85
2022/04/19 03:28:47;;;;;;;6.63;4.13;;;;;;;;;;4953899;28;20086;-83
2022/04/19 03:31:15;;;;;;;9.02;4.97;;;;;;;;;;4953473;29;20074;-82
2022/04/19 03:33:42;;;;;;;9.15;5.68;;;;;;;;;;4952397;29;20062;-82
2022/04/19 03:36:09;;;;;;;6.75;4.65;;;;;;;;;;4953765;28;20120;-81
2022/04/19 03:38:36;;;;;;;10.57;5.47;;;;;;;;;;4952453;29;20363;-81
2022/04/19 03:41:04;;;;;;;7.93;4.63;;;;;;;;;;4954799;28;20065;-81
2022/04/19 03:43:32;;;;;;;8.93;4.90;;;;;;;;;;4954594;29;20051;-81
2022/04/19 03:46:00;;;;;;;8.82;4.88;;;;;;;;;;4953958;29;20051;-81
2022/04/19 03:48:28;;;;;;;7.07;4.22;;;;;;;;;;4953346;29;20478;-81
2022/04/19 03:50:55;;;;;;;9.93;4.63;;;;;;;;;;4954899;28;20070;-81
2022/04/19 03:53:22;;;;;;;8.27;4.35;;;;;;;;;;4953143;29;20121;-81
2022/04/19 03:55:49;;;;;;;5.60;3.60;;;;;;;;;;4953121;29;20047;-81
2022/04/19 03:58:16;;;;;;;7.57;4.82;;;;;;;;;;4955249;28;20079;-81
2022/04/19 04:00:44;;;;;;;5.70;4.28;;;;;;;;;;4957227;29;20074;-81
2022/04/19 04:03:11;;;;;;;11.05;5.63;;;;;;;;;;4956869;29;20537;-81
2022/04/19 04:15:59;;;;;;;15.68;5.00;;;;;;;;;;5139935;23;20432;-91
2022/04/19 04:18:26;;;;;;;10.18;5.55;;;;;;;;;;5055768;28;20065;-91
2022/04/19 04:20:53;;;;;;;8.90;5.82;;;;;;;;;;5056664;28;20096;-91
2022/04/19 04:23:20;;;;;;;11.25;5.80;;;;;;;;;;5055689;28;20084;-91
2022/04/19 04:25:47;;;;;;;6.60;4.85;;;;;;;;;;5055684;28;20055;-91
2022/04/19 04:28:14;;;;;;;7.65;5.13;;;;;;;;;;5056385;28;20486;-92
2022/04/19 04:30:42;;;;;;;12.95;4.60;;;;;;;;;;5055872;28;20143;-91
2022/04/19 04:33:09;;;;;;;9.82;4.57;;;;;;;;;;5055434;28;20057;-91
2022/04/19 04:35:36;;;;;;;8.43;5.13;;;;;;;;;;5055770;28;20052;-91
2022/04/19 04:38:03;;;;;;;8.43;6.03;;;;;;;;;;5056656;28;20468;-90
2022/04/19 04:40:31;;;;;;;9.75;5.82;;;;;;;;;;5056387;28;20135;-91
2022/04/19 04:42:58;;;;;;;11.05;5.95;;;;;;;;;;5055786;28;20049;-91
2022/04/19 04:45:26;;;;;;;9.40;5.28;;;;;;;;;;5055078;28;20059;-91
2022/04/19 04:50:39;;;;;;;10.40;5.45;;;;;;;;;;5056325;28;20044;-91
2022/04/19 04:53:06;;;;;;;9.63;6.00;;;;;;;;;;5056314;28;20139;-92
2022/04/19 04:55:33;;;;;;;5.97;5.22;;;;;;;;;;5055195;28;20053;-91
2022/04/19 04:58:01;;;;;;;10.32;6.50;;;;;;;;;;5055267;28;20504;-91
2022/04/19 05:00:29;;;;;;;8.45;5.00;;;;;;;;;;5056327;28;20151;-91
2022/04/19 05:02:56;;;;;;;14.15;5.78;;;;;;;;;;5055034;28;20045;-92
2022/04/19 05:05:23;;;;;;;7.55;5.78;;;;;;;;;;5055855;28;20508;-91
2022/04/19 05:07:51;;;;;;;11.02;5.45;;;;;;;;;;5055094;28;20075;-92
2022/04/19 05:10:18;;;;;;;9.50;6.25;;;;;;;;;;5054952;28;20088;-91
2022/04/19 05:12:45;;;;;;;9.10;6.03;;;;;;;;;;5054899;28;20140;-91
2022/04/19 05:15:13;;;;;;;8.85;6.50;;;;;;;;;;5055535;28;20397;-92
2022/04/19 05:17:40;;;;;;;12.13;7.45;;;;;;;;;;5054889;28;20076;-91
2022/04/19 05:20:09;;;;;;;11.38;6.78;;;;;;;;;;5055850;28;20140;-91
2022/04/19 05:22:36;;;;;;;12.23;6.72;;;;;;;;;;5054756;28;20088;-91
2022/04/19 05:25:04;;;;;;;13.00;6.03;;;;;;;;;;5054907;28;20131;-91
2022/04/19 05:27:31;;;;;;;7.35;4.70;;;;;;;;;;5055782;28;20103;-91
2022/04/19 05:29:58;;;;;;;8.60;5.25;;;;;;;;;;5054513;28;20045;-91
2022/04/19 05:32:27;;;;;;;11.82;5.00;;;;;;;;;;5054732;28;20139;-91
2022/04/19 05:34:54;;;;;;;12.68;5.10;;;;;;;;;;5055552;28;20049;-91
2022/04/19 05:37:22;;;;;;;8.07;5.07;;;;;;;;;;5055065;28;20059;-91
2022/04/19 05:39:49;;;;;;;11.68;4.72;;;;;;;;;;5055327;28;20468;-92
2022/04/19 05:42:16;;;;;;;11.98;4.70;;;;;;;;;;5055270;28;20083;-91
2022/04/19 05:44:43;;;;;;;16.77;4.15;;;;;;;;;;5054991;28;20055;-92
2022/04/19 05:47:11;;;;;;;19.48;4.18;;;;;;;;;;5056229;28;20079;-91
2022/04/19 05:49:38;;;;;;;7.22;4.03;;;;;;;;;;5054811;28;20490;-92
2022/04/19 05:52:05;;;;;;;13.75;4.57;;;;;;;;;;5055147;28;20048;-93
2022/04/19 05:54:32;;;;;;;11.20;4.45;;;;;;;;;;5055028;28;20127;-92
2022/04/19 05:56:59;;;;;;;9.25;3.65;;;;;;;;;;5057468;28;20100;-91
2022/04/19 05:59:27;;;;;;;9.43;3.50;;;;;;;;;;5066678;28;20072;-92
2022/04/19 06:04:52;;;;;;;16.10;4.45;;;;;;;;;;5056111;28;20140;-92
2022/04/19 06:07:24;;;;;;;8.57;2.83;;;;;;;;;;5054102;28;20060;-92
2022/04/19 06:09:54;;;;;;;17.73;10.18;;;;;;;;;;5053757;28;20053;-91
2022/04/19 06:12:22;;;;;;;13.00;5.95;;;;;;;;;;5055050;28;20136;-92
2022/04/19 06:14:49;;;;;;;4.82;3.88;;;;;;;;;;5054242;28;20136;-92
2022/04/19 06:17:17;;;;;;;5.65;3.47;;;;;;;;;;5053841;28;20052;-92
2022/04/19 06:19:45;;;;;;;3.67;2.58;;;;;;;;;;5053335;28;20049;-93
2022/04/19 06:22:13;;;;;;;5.72;2.58;;;;;;;;;;5054078;28;20048;-92
2022/04/19 06:24:40;;;;;;;5.88;2.33;;;;;;;;;;5054835;28;20056;-91
2022/04/19 06:27:08;;;;;;;5.05;2.83;;;;;;;;;;5053363;28;20099;-92
2022/04/19 06:29:35;;;;;;;3.58;3.00;;;;;;;;;;5054808;28;20045;-92
2022/04/19 06:32:03;;;;;;;7.82;2.47;;;;;;;;;;5053386;28;20083;-91
2022/04/19 06:34:30;;;;;;;2.60;2.40;;;;;;;;;;5054128;28;20409;-92
2022/04/19 06:36:57;;;;;;;4.45;2.38;;;;;;;;;;5054465;28;20053;-92
2022/04/19 06:39:24;;;;;;;3.50;2.35;;;;;;;;;;5053358;28;20045;-92
2022/04/19 06:41:53;;;;;;;13.68;3.60;;;;;;;;;;5053498;28;20088;-92
2022/04/19 06:44:21;;;;;;;17.60;5.57;;;;;;;;;;5053866;28;20137;-92
2022/04/19 06:46:50;;;;;;;23.42;9.50;;;;;;;;;;5053480;28;20048;-92
2022/04/19 06:49:17;;;;;;;16.42;5.65;;;;;;;;;;5053717;28;20383;-93
2022/04/19 06:51:45;;;;;;;31.77;5.60;;;;;;;;;;5052789;28;20140;-92
2022/04/19 06:54:12;;;;;;;24.42;7.40;;;;;;;;;;5052999;28;20489;-92
2022/04/19 06:56:40;;;;;;;17.73;6.10;;;;;;;;;;5053065;28;20339;-92
2022/04/19 06:59:08;;;;;;;19.40;8.00;;;;;;;;;;5053103;28;20143;-92
2022/04/19 07:01:37;;;;;;;10.43;4.50;;;;;;;;;;5053747;28;20507;-92
2022/04/19 07:04:05;;;;;;;6.43;3.78;;;;;;;;;;5051929;28;20099;-92
2022/04/19 07:06:32;;;;;;;19.15;4.60;;;;;;;;;;5052205;28;20094;-92
2022/04/19 07:08:59;;;;;;;11.98;3.70;;;;;;;;;;5052535;28;20466;-92
2022/04/19 07:11:27;;;;;;;8.80;4.03;;;;;;;;;;5053286;28;20046;-92
2022/04/19 07:13:54;;;;;;;10.40;4.13;;;;;;;;;;5053476;28;20136;-93
2022/04/19 07:16:21;;;;;;;24.83;4.70;;;;;;;;;;5052405;28;20089;-94
2022/04/19 07:18:49;;;;;;;8.95;3.65;;;;;;;;;;5052612;28;20060;-93
2022/04/19 07:27:08;;;;;;;3.70;2.92;;;;;;;;;;5053795;28;20084;-92
2022/04/19 07:29:35;;;;;;;4.40;3.45;;;;;;;;;;5053625;28;20379;-92
2022/04/19 07:32:02;;;;;;;3.83;3.08;;;;;;;;;;5053985;28;20109;-92
2022/04/19 07:34:29;;;;;;;7.80;3.25;;;;;;;;;;5057556;28;20071;-92
2022/04/19 07:36:57;;;;;;;5.43;2.97;;;;;;;;;;5057310;28;20055;-92
2022/04/19 07:39:24;;;;;;;3.08;2.78;;;;;;;;;;5057335;28;20533;-92
2022/04/19 07:41:53;;;;;;;4.03;3.42;;;;;;;;;;5057090;28;20063;-92
2022/04/19 07:44:22;;;;;;;4.03;3.08;;;;;;;;;;5059101;28;20486;-94
2022/04/19 07:46:50;;;;;;;3.17;2.45;;;;;;;;;;5056769;28;20489;-94
2022/04/19 07:49:17;;;;;;;2.75;2.50;;;;;;;;;;5057304;28;20104;-93
2022/04/19 07:51:45;;;;;;;3.15;2.90;;;;;;;;;;5056946;28;20138;-93
2022/04/19 07:54:12;;;;;;;2.60;2.45;;;;;;;;;;5056872;28;20080;-94
2022/04/19 07:56:39;;;;;;;2.63;2.53;;;;;;;;;;5057124;28;20409;-94
2022/04/19 07:59:06;;;;;;;3.22;2.53;;;;;;;;;;5055827;28;20077;-95
2022/04/19 08:01:33;;;;;;;2.53;2.33;;;;;;;;;;5056168;28;20132;-94
2022/04/19 08:04:00;;;;;;;8.93;2.58;;;;;;;;;;5056447;28;20049;-94
2022/04/19 08:06:28;;;;;;;2.70;2.50;;;;;;;;;;5057337;28;20127;-92
2022/04/19 08:08:55;;;;;;;3.25;2.28;;;;;;;;;;5057067;28;20092;-92
2022/04/19 08:11:22;;;;;;;3.53;2.22;;;;;;;;;;5055147;28;20052;-91
2022/04/19 08:13:49;;;;;;;4.95;2.22;;;;;;;;;;5057827;28;20068;-93
2022/04/19 08:16:16;;;;;;;2.50;1.95;;;;;;;;;;5055634;28;20096;-92
2022/04/19 08:18:44;;;;;;;7.43;2.25;;;;;;;;;;5056600;28;20245;-92
2022/04/19 08:21:12;;;;;;;3.10;2.80;;;;;;;;;;5056499;28;20418;-91
2022/04/19 08:23:39;;;;;;;4.20;2.50;;;;;;;;;;5055963;28;20049;-93
2022/04/19 08:26:06;;;;;;;6.47;2.33;;;;;;;;;;5056958;28;20045;-94
2022/04/19 08:28:33;;;;;;;2.90;2.30;;;;;;;;;;5058285;28;20052;-93
2022/04/19 08:31:00;;;;;;;2.92;2.10;;;;;;;;;;5056774;28;20045;-92
2022/04/19 08:33:28;;;;;;;4.05;2.20;;;;;;;;;;5056168;28;20204;-94
2022/04/19 08:35:55;;;;;;;4.78;2.63;;;;;;;;;;5057398;28;20053;-93
2022/04/19 08:38:22;;;;;;;4.88;2.55;;;;;;;;;;5057100;28;20143;-93
2022/04/19 08:40:49;;;;;;;2.83;2.35;;;;;;;;;;5056437;28;20084;-92
2022/04/19 08:43:17;;;;;;;2.28;2.17;;;;;;;;;;5057359;28;20095;-93
2022/04/19 08:45:45;;;;;;;3.10;2.55;;;;;;;;;;5058301;28;20049;-95
2022/04/19 08:48:15;;;;;;;3.05;2.80;;;;;;;;;;5065865;28;20113;-92
2022/04/19 08:50:46;;;;;;;2.20;2.00;;;;;;;;;;5067586;28;20052;-91
2022/04/19 08:58:45;;;;;;;35.50;4.70;;;;;;;;;;5055643;28;20053;-94
2022/04/19 09:01:12;;;;;;;4.65;1.50;;;;;;;;;;5056967;28;20136;-90
2022/04/19 09:03:41;;;;;;;2.10;1.20;;;;;;;;;;5055133;28;20199;-94
2022/04/19 09:06:08;;;;;;;1.50;1.40;;;;;;;;;;5057672;28;20140;-93
2022/04/19 09:08:36;;;;;;;3.40;1.65;;;;;;;;;;5055699;28;20051;-95
2022/04/19 09:11:05;;;;;;;1.42;1.33;;;;;;;;;;5055077;28;20087;-94
2022/04/19 09:13:32;;;;;;;1.02;1.02;;;;;;;;;;5054639;28;20079;-93
2022/04/19 09:16:03;;;;;;;2.05;1.35;;;;;;;;;;5056074;28;20092;-91
2022/04/19 09:18:32;;;;;;;1.15;1.00;;;;;;;;;;5055714;28;20128;-91
2022/04/19 09:21:00;;;;;;;1.77;0.95;;;;;;;;;;5054932;28;20480;-93
2022/04/19 09:23:29;;;;;;;0.95;0.73;;;;;;;;;;5055723;28;20045;-92
2022/04/19 09:26:00;;;;;;;2.67;0.90;;;;;;;;;;5054727;28;20064;-93
2022/04/19 09:28:28;;;;;;;1.77;0.90;;;;;;;;;;5056383;28;20136;-94
2022/04/19 09:30:57;;;;;;;2.70;1.00;;;;;;;;;;5055620;28;20055;-93
2022/04/19 09:33:25;;;;;;;1.75;1.02;;;;;;;;;;5055829;28;20060;-94
2022/04/19 09:36:02;;;;;;;3.53;1.20;;;;;;;;;;5054525;28;20045;-90
2022/04/19 09:38:35;;;;;;;1.90;0.90;;;;;;;;;;5054564;28;20099;-90
2022/04/19 09:41:03;;;;;;;2.13;1.10;;;;;;;;;;5054850;28;20080;-92
2022/04/19 09:44:06;;;;;;;2.88;1.00;;;;;;;;;;5055135;28;20045;-93
2022/04/19 09:46:33;;;;;;;1.23;1.13;;;;;;;;;;5057803;28;20060;-94
2022/04/19 09:49:00;;;;;;;2.17;0.93;;;;;;;;;;5055678;28;20148;-92
2022/04/19 09:51:32;;;;;;;0.95;0.95;;;;;;;;;;5056223;28;20076;-91
2022/04/19 09:53:59;;;;;;;2.80;0.93;;;;;;;;;;5055780;28;20051;-95
2022/04/19 09:56:34;;;;;;;1.40;1.30;;;;;;;;;;5055013;28;20131;-92
2022/04/19 09:59:17;;;;;;;1.33;1.00;;;;;;;;;;5056952;28;20083;-93
2022/04/19 10:10:12;;;;;;;6.28;1.27;;;;;;;;;;5056367;28;20053;-92
2022/04/19 10:12:40;;;;;;;1.00;0.90;;;;;;;;;;5056280;28;20508;-91
2022/04/19 10:15:07;;;;;;;1.52;1.40;;;;;;;;;;5054778;28;20476;-93
2022/04/19 10:17:36;;;;;;;1.05;0.95;;;;;;;;;;5054631;28;20053;-94
2022/04/19 10:20:04;;;;;;;4.90;1.50;;;;;;;;;;5054638;28;20053;-94
2022/04/19 10:22:32;;;;;;;1.10;0.98;;;;;;;;;;5055273;28;20554;-92
2022/04/19 10:25:02;;;;;;;2.13;1.13;;;;;;;;;;5054549;28;20049;-91
2022/04/19 10:27:34;;;;;;;2.70;1.52;;;;;;;;;;5055421;28;20060;-94
2022/04/19 10:30:03;;;;;;;3.83;1.50;;;;;;;;;;5054657;28;20061;-93
2022/04/19 10:32:33;;;;;;;3.17;1.50;;;;;;;;;;5055162;28;20083;-93
2022/04/19 10:35:02;;;;;;;1.55;1.45;;;;;;;;;;5055407;28;20045;-95
2022/04/19 10:37:29;;;;;;;1.40;1.17;;;;;;;;;;5055456;28;20121;-94
2022/04/19 10:39:59;;;;;;;1.60;1.50;;;;;;;;;;5054245;28;20045;-94
2022/04/19 10:42:29;;;;;;;1.20;1.08;;;;;;;;;;5055362;28;20136;-87
2022/04/19 10:44:57;;;;;;;1.25;1.10;;;;;;;;;;5053813;28;20049;-92
2022/04/19 10:47:28;;;;;;;1.33;1.10;;;;;;;;;;5054582;28;20070;-89
2022/04/19 10:50:06;;;;;;;1.00;1.00;;;;;;;;;;5055268;28;20087;-90
2022/04/19 10:52:39;;;;;;;1.40;1.30;;;;;;;;;;5054260;28;20127;-89
2022/04/19 10:55:06;;;;;;;1.17;1.15;;;;;;;;;;5055304;28;20053;-90
2022/04/19 11:00:29;;;;;;;2.88;1.33;;;;;;;;;;5054524;28;20568;-88
2022/04/19 11:03:18;;;;;;;1.38;1.27;;;;;;;;;;5053753;28;20489;-91
2022/04/19 11:05:52;;;;;;;1.70;1.35;;;;;;;;;;5053331;28;20091;-89
2022/04/19 11:08:19;;;;;;;3.15;1.08;;;;;;;;;;5053978;28;20052;-88
2022/04/19 11:10:47;;;;;;;1.88;1.20;;;;;;;;;;5053086;28;20099;-93
2022/04/19 11:13:14;;;;;;;1.38;1.30;;;;;;;;;;5053329;28;20081;-91
2022/04/19 11:15:42;;;;;;;3.47;1.73;;;;;;;;;;5053083;28;20057;-89
2022/04/19 11:18:22;;;;;;;1.42;1.15;;;;;;;;;;5053027;28;20080;-91
2022/04/19 11:20:50;;;;;;;3.72;1.33;;;;;;;;;;5054011;28;20208;-91
2022/04/19 11:23:21;;;;;;;1.25;1.15;;;;;;;;;;5052735;28;20045;-91
2022/04/19 11:25:51;;;;;;;2.60;1.50;;;;;;;;;;5053301;28;20045;-91
2022/04/19 11:28:19;;;;;;;11.05;2.22;;;;;;;;;;5058301;28;20056;-91
2022/04/19 11:30:55;;;;;;;2.20;1.40;;;;;;;;;;5059980;28;20053;-93
2022/04/19 11:33:23;;;;;;;10.85;9.00;;;;;;;;;;5057749;28;20091;-92
2022/04/19 11:36:07;;;;;;;2.17;1.98;;;;;;;;;;5053776;28;20053;-92
2022/04/19 11:38:36;;;;;;;2.65;2.30;;;;;;;;;;5054081;28;20466;-91
2022/04/19 11:46:46;;;;;;;12.23;9.50;;;;;;;;;;5054136;28;20049;-93
2022/04/19 11:49:16;;;;;;;2.30;2.00;;;;;;;;;;5053487;28;20055;-92
2022/04/19 11:51:47;;;;;;;3.83;2.40;;;;;;;;;;5054569;28;20053;-91
2022/04/19 11:54:20;;;;;;;2.50;2.30;;;;;;;;;;5052776;28;20105;-90
2022/04/19 11:56:47;;;;;;;;;;;;;;;;;;5053215;28;20127;-91
2022/04/19 11:59:15;;;;;;;2.33;2.13;;;;;;;;;;5053356;28;19921;-94
2022/04/19 12:01:48;;;;;;;1.38;1.27;;;;;;;;;;5053091;28;20049;-95
2022/04/19 12:04:16;;;;;;;4.53;1.98;;;;;;;;;;5052447;28;20080;-89
2022/04/19 12:06:48;;;;;;;4.18;1.60;;;;;;;;;;5053226;28;20101;-92
2022/04/19 12:09:16;;;;;;;1.90;1.40;;;;;;;;;;5052410;28;20084;-92
2022/04/19 12:11:45;;;;;;;1.85;1.65;;;;;;;;;;5053767;28;20076;-88
2022/04/19 12:14:28;;;;;;;2.80;1.77;;;;;;;;;;5052266;28;20067;-93
2022/04/19 12:16:57;;;;;;;4.07;1.48;;;;;;;;;;5052469;28;20144;-92
2022/04/19 12:19:35;;;;;;;1.45;1.35;;;;;;;;;;5055303;28;20140;-91
2022/04/19 12:22:13;;;;;;;3.50;1.60;;;;;;;;;;5055464;28;20228;-93
2022/04/19 12:24:44;;;;;;;3.92;1.60;;;;;;;;;;5055660;28;20533;-92
2022/04/19 12:27:11;;;;;;;11.35;2.38;;;;;;;;;;5056751;28;20099;-90
2022/04/19 12:29:55;;;;;;;1.50;1.40;;;;;;;;;;5056404;28;20055;-91
2022/04/19 12:32:22;;;;;;;2.90;1.60;;;;;;;;;;5057045;28;20080;-91
2022/04/19 12:34:50;;;;;;;5.82;1.90;;;;;;;;;;5056337;28;20079;-87
2022/04/19 12:37:19;;;;;;;2.70;1.83;;;;;;;;;;5055575;28;20135;-91
2022/04/19 12:39:59;;;;;;;3.33;2.05;;;;;;;;;;5057356;28;20085;-88
2022/04/19 12:42:27;;;;;;;4.65;1.75;;;;;;;;;;5056375;28;20163;-90
2022/04/19 12:45:08;;;;;;;2.03;1.75;;;;;;;;;;5055846;28;20045;-92
2022/04/19 12:47:35;;;;;;;2.17;1.50;;;;;;;;;;5055084;28;20076;-92
2022/04/19 12:50:12;;;;;;;1.58;1.45;;;;;;;;;;5056041;28;20049;-89
2022/04/19 12:52:41;;;;;;;2.75;1.73;;;;;;;;;;5054599;28;20497;-92
2022/04/19 12:55:09;;;;;;;2.15;1.90;;;;;;;;;;5054747;28;20051;-91
2022/04/19 12:57:39;;;;;;;2.22;1.90;;;;;;;;;;5055237;28;20127;-91
2022/04/19 13:00:09;;;;;;;6.30;2.13;;;;;;;;;;5055301;28;20084;-92
2022/04/19 13:02:37;;;;;;;10.77;2.80;;;;;;;;;;5055332;28;20095;-92
2022/04/19 13:05:04;;;;;;;3.20;1.95;;;;;;;;;;5054632;28;20056;-91
2022/04/19 13:13:05;;;;;;;4.10;2.30;;;;;;;;;;5055596;28;20052;-90
2022/04/19 13:15:36;;;;;;;3.88;2.53;;;;;;;;;;5054201;28;20520;-88
2022/04/19 13:18:04;;;;;;;2.33;2.13;;;;;;;;;;5054762;28;20053;-89
2022/04/19 13:20:31;;;;;;;4.22;3.03;;;;;;;;;;5054797;28;20045;-89
2022/04/19 13:22:59;;;;;;;6.30;2.92;;;;;;;;;;5054222;28;20511;-88
2022/04/19 13:25:26;;;;;;;7.93;3.28;;;;;;;;;;5054838;28;20499;-92
2022/04/19 13:27:53;;;;;;;7.97;3.03;;;;;;;;;;5055091;28;20136;-90
2022/04/19 13:30:21;;;;;;;2.83;2.60;;;;;;;;;;5054731;28;20110;-91
2022/04/19 13:32:48;;;;;;;5.43;2.70;;;;;;;;;;5054925;28;20040;-92
2022/04/19 13:35:16;;;;;;;3.65;2.50;;;;;;;;;;5055552;28;20087;-89
2022/04/19 13:40:29;;;;;;;2.58;2.42;;;;;;;;;;5055297;28;20120;-88
2022/04/19 13:42:56;;;;;;;3.15;2.70;;;;;;;;;;5055959;28;20081;-90
2022/04/19 13:45:24;;;;;;;5.72;2.90;;;;;;;;;;5055054;28;20127;-93
2022/04/19 13:47:51;;;;;;;7.97;3.10;;;;;;;;;;5054026;28;20045;-91
2022/04/19 13:50:19;;;;;;;4.93;2.60;;;;;;;;;;5053906;28;20057;-90
2022/04/19 13:52:47;;;;;;;2.58;2.38;;;;;;;;;;5054110;28;20133;-85
2022/04/19 13:55:18;;;;;;;2.72;2.53;;;;;;;;;;5054690;28;20056;-89
2022/04/19 13:57:45;;;;;;;6.60;3.25;;;;;;;;;;5053561;28;20589;-90
2022/04/19 14:00:13;;;;;;;7.25;3.28;;;;;;;;;;5054220;28;20120;-90
2022/04/19 14:02:40;;;;;;;3.90;2.88;;;;;;;;;;5055202;28;20072;-89
2022/04/19 14:05:09;;;;;;;7.30;2.83;;;;;;;;;;5054034;28;20475;-89
2022/04/19 14:07:37;;;;;;;4.65;3.05;;;;;;;;;;5056794;28;20131;-88
2022/04/19 14:10:06;;;;;;;8.25;3.38;;;;;;;;;;5059039;28;20076;-93
2022/04/19 14:12:34;;;;;;;2.58;2.38;;;;;;;;;;5057282;28;20442;-92
2022/04/19 14:15:01;;;;;;;6.50;2.70;;;;;;;;;;5054126;28;20151;-90
2022/04/19 14:17:29;;;;;;;6.25;2.80;;;;;;;;;;5053690;28;20053;-92
2022/04/19 14:19:56;;;;;;;3.33;3.03;;;;;;;;;;5053958;28;20055;-89
2022/04/19 14:22:26;;;;;;;6.03;3.13;;;;;;;;;;5054255;28;20493;-91
2022/04/19 14:24:55;;;;;;;5.55;2.90;;;;;;;;;;5053537;28;20148;-93
2022/04/19 14:27:22;;;;;;;3.90;3.15;;;;;;;;;;5053844;28;20095;-92
2022/04/19 14:35:21;;;;;;;5.00;2.42;;;;;;;;;;5054005;28;20080;-91
2022/04/19 14:37:48;;;;;;;3.50;3.13;;;;;;;;;;5052890;28;20135;-90
2022/04/19 14:40:16;;;;;;;5.38;3.00;;;;;;;;;;5053309;28;20045;-90
2022/04/19 14:42:45;;;;;;;5.18;2.78;;;;;;;;;;5054035;28;20135;-93
2022/04/19 14:45:16;;;;;;;3.38;2.92;;;;;;;;;;5053116;28;20041;-94
2022/04/19 14:47:43;;;;;;;2.63;2.42;;;;;;;;;;5053098;28;20084;-90
2022/04/19 14:50:11;;;;;;;3.78;3.15;;;;;;;;;;5053657;28;20052;-93
2022/04/19 14:52:38;;;;;;;3.63;2.63;;;;;;;;;;5054764;28;20079;-88
2022/04/19 14:55:05;;;;;;;4.55;2.83;;;;;;;;;;5052625;28;20098;-89
2022/04/19 14:57:33;;;;;;;3.38;3.10;;;;;;;;;;5052542;28;20135;-91
2022/04/19 15:00:01;;;;;;;18.73;3.20;;;;;;;;;;5053266;28;20072;-88
2022/04/19 15:02:30;;;;;;;5.80;2.90;;;;;;;;;;5053603;28;20053;-91
2022/04/19 15:04:57;;;;;;;7.03;3.05;;;;;;;;;;5052833;28;20045;-91
2022/04/19 15:07:26;;;;;;;3.78;2.40;;;;;;;;;;5053480;28;20049;-92
2022/04/19 15:09:53;;;;;;;3.35;3.03;;;;;;;;;;5052694;28;20045;-90
2022/04/19 15:12:22;;;;;;;4.65;3.10;;;;;;;;;;5052306;28;20091;-92
2022/04/19 15:14:52;;;;;;;4.82;2.72;;;;;;;;;;5053604;28;20126;-88
2022/04/19 15:17:19;;;;;;;4.53;2.90;;;;;;;;;;5052856;28;20462;-90
2022/04/19 15:19:46;;;;;;;3.00;2.70;;;;;;;;;;5053460;28;20052;-91
2022/04/19 15:22:15;;;;;;;5.43;2.97;;;;;;;;;;5053622;28;20126;-93
2022/04/19 15:24:48;;;;;;;3.85;2.60;;;;;;;;;;5052571;28;20063;-93
2022/04/19 15:27:16;;;;;;;6.20;2.90;;;;;;;;;;5053187;28;20458;-92
2022/04/19 15:29:43;;;;;;;7.85;3.40;;;;;;;;;;5052961;28;20081;-90
2022/04/19 15:32:11;;;;;;;6.35;2.45;;;;;;;;;;5053074;28;20049;-88
2022/04/19 15:34:38;;;;;;;2.42;2.22;;;;;;;;;;5053784;28;20482;-87
2022/04/19 15:37:05;;;;;;;4.18;2.45;;;;;;;;;;5052370;28;20083;-84
2022/04/19 15:39:32;;;;;;;4.53;2.50;;;;;;;;;;5052501;28;20081;-92
2022/04/19 15:41:59;;;;;;;5.55;2.00;;;;;;;;;;5052377;28;20049;-87
2022/04/19 15:44:27;;;;;;;1.95;1.63;;;;;;;;;;5053147;28;20057;-91
2022/04/19 15:46:56;;;;;;;12.52;2.97;;;;;;;;;;5052408;28;20132;-89
2022/04/19 15:49:23;;;;;;;2.00;1.80;;;;;;;;;;5051974;28;20156;-90
2022/04/19 15:51:51;;;;;;;4.75;2.15;;;;;;;;;;5050797;28;20048;-92
2022/04/19 15:54:18;;;;;;;1.73;1.63;;;;;;;;;;5053963;28;20059;-92
2022/04/19 15:56:45;;;;;;;1.88;1.60;;;;;;;;;;5057329;28;20053;-91